Time;durP1;ratioP1;P1;durP2;ratioP2;P2;SDS_P1;SDS_P2;PMS_P1;PMS_P2;Temp;Humidity;BMP_temperature;BMP_pressure;BME280_temperature;BME280_humidity;BME280_pressure;Samples;Min_cycle;Max_cycle;Signal;HPM_P1;HPM_P2
2022/05/13 00:01:35;;;;;;;8.30;3.00;;;11.90;99.90;;;;;;5069339;28;20044;-79
2022/05/13 00:04:02;;;;;;;11.85;2.58;;;12.00;99.90;;;;;;5086224;28;20410;-79
2022/05/13 00:06:27;;;;;;;8.23;2.75;;;11.90;99.90;;;;;;5069605;28;20044;-79
2022/05/13 00:08:53;;;;;;;13.93;2.63;;;11.90;99.90;;;;;;5068530;28;20127;-79
2022/05/13 00:11:19;;;;;;;10.30;2.60;;;11.90;99.90;;;;;;5052201;28;20048;-79
2022/05/13 00:13:45;;;;;;;13.63;3.22;;;11.90;99.90;;;;;;5069444;28;20142;-79
2022/05/13 00:16:11;;;;;;;10.90;2.70;;;11.90;99.90;;;;;;5068253;28;20052;-79
2022/05/13 00:18:37;;;;;;;10.43;3.00;;;12.00;99.90;;;;;;5086946;28;20487;-79
2022/05/13 00:21:02;;;;;;;13.00;2.70;;;11.90;99.90;;;;;;5069071;28;20486;-79
2022/05/13 00:23:29;;;;;;;13.02;3.63;;;11.90;99.90;;;;;;5068128;28;20056;-79
2022/05/13 00:25:54;;;;;;;12.18;3.50;;;11.90;99.90;;;;;;5069450;28;20044;-79
2022/05/13 00:28:20;;;;;;;11.80;2.88;;;11.90;99.90;;;;;;5068283;28;20048;-79
2022/05/13 00:30:48;;;;;;;9.60;2.97;;;11.90;99.90;;;;;;5068693;28;20079;-79
2022/05/13 00:33:15;;;;;;;10.27;2.50;;;12.20;99.90;;;;;;5068620;28;20044;-79
2022/05/13 00:35:40;;;;;;;17.17;3.08;;;11.90;99.90;;;;;;5072906;28;20145;-79
2022/05/13 00:38:07;;;;;;;10.60;3.15;;;11.90;99.90;;;;;;5071383;28;20501;-79
2022/05/13 00:40:33;;;;;;;9.55;2.70;;;11.90;99.90;;;;;;5073028;28;20043;-79
2022/05/13 00:43:02;;;;;;;12.50;3.60;;;12.40;99.90;;;;;;5072675;28;20076;-79
2022/05/13 00:45:28;;;;;;;13.95;3.33;;;12.40;99.90;;;;;;5071841;28;20048;-78
2022/05/13 00:47:54;;;;;;;9.48;2.78;;;11.90;99.90;;;;;;5072338;28;20139;-79
2022/05/13 00:50:20;;;;;;;16.00;3.08;;;11.90;99.90;;;;;;5090132;28;20510;-79
2022/05/13 00:52:49;;;;;;;13.73;2.70;;;11.80;99.90;;;;;;5072536;28;20394;-79
2022/05/13 00:55:21;;;;;;;11.50;3.42;;;12.40;99.90;;;;;;5072143;28;20097;-79
2022/05/13 00:57:48;;;;;;;13.38;2.70;;;11.80;99.90;;;;;;5089941;28;20051;-79
2022/05/13 01:00:15;;;;;;;13.70;3.20;;;11.80;99.90;;;;;;5090583;28;20044;-79
2022/05/13 01:02:44;;;;;;;12.43;2.95;;;11.80;99.90;;;;;;5071147;28;20050;-78
2022/05/13 01:05:11;;;;;;;12.13;2.40;;;11.80;99.90;;;;;;5071634;28;20097;-79
2022/05/13 01:07:39;;;;;;;14.85;2.83;;;11.80;99.90;;;;;;5090306;28;20108;-79
2022/05/13 01:10:08;;;;;;;13.80;3.60;;;11.80;99.90;;;;;;5090508;28;20462;-79
2022/05/13 01:12:38;;;;;;;9.85;2.95;;;11.80;99.90;;;;;;5089786;28;20459;-79
2022/05/13 01:15:09;;;;;;;13.38;3.20;;;11.90;99.90;;;;;;5072164;28;20040;-79
2022/05/13 01:20:25;;;;;;;10.63;2.80;;;11.80;99.90;;;;;;5071279;28;20096;-79
2022/05/13 01:22:54;;;;;;;11.93;3.45;;;11.80;99.90;;;;;;5090156;28;20040;-79
2022/05/13 01:25:24;;;;;;;11.43;3.70;;;11.90;99.90;;;;;;5072005;28;20502;-79
2022/05/13 01:27:51;;;;;;;11.07;2.80;;;11.90;99.90;;;;;;5071353;28;20086;-79
2022/05/13 01:30:26;;;;;;;14.18;3.33;;;12.30;99.90;;;;;;5071537;28;20097;-79
2022/05/13 01:32:52;;;;;;;12.18;3.33;;;11.90;99.90;;;;;;5070036;28;20040;-79
2022/05/13 01:35:18;;;;;;;15.80;3.25;;;11.80;99.90;;;;;;5090195;28;20056;-79
2022/05/13 01:37:43;;;;;;;21.13;3.85;;;11.80;99.90;;;;;;5071386;28;20052;-79
2022/05/13 01:40:09;;;;;;;13.27;3.25;;;11.80;99.90;;;;;;5054107;28;20754;-79
2022/05/13 01:42:35;;;;;;;17.27;3.85;;;11.80;99.90;;;;;;5071580;28;20046;-79
2022/05/13 01:45:01;;;;;;;11.60;3.55;;;11.80;99.90;;;;;;5071225;28;20040;-79
2022/05/13 01:47:28;;;;;;;11.10;3.95;;;11.90;99.90;;;;;;5070024;28;20458;-79
2022/05/13 01:49:55;;;;;;;15.23;3.63;;;12.10;99.90;;;;;;5054682;28;20036;-79
2022/05/13 01:52:20;;;;;;;15.70;3.80;;;11.90;99.90;;;;;;5071217;28;20624;-78
2022/05/13 01:54:46;;;;;;;15.80;3.47;;;11.90;99.90;;;;;;5089367;28;20047;-78
2022/05/13 01:57:12;;;;;;;13.38;3.28;;;11.80;99.90;;;;;;5066848;28;20056;-79
2022/05/13 01:59:38;;;;;;;15.52;3.67;;;12.10;99.90;;;;;;5051480;28;20109;-79
2022/05/13 02:02:03;;;;;;;14.77;3.00;;;12.00;99.90;;;;;;5066558;28;20040;-79
2022/05/13 02:04:29;;;;;;;13.65;3.50;;;11.80;99.90;;;;;;5069175;28;20173;-79
2022/05/13 02:06:55;;;;;;;15.30;3.20;;;11.90;99.90;;;;;;5075135;28;20492;-79
2022/05/13 02:09:21;;;;;;;12.35;3.60;;;11.80;99.90;;;;;;5076714;28;20399;-79
2022/05/13 02:11:46;;;;;;;18.80;4.35;;;11.80;99.90;;;;;;5079291;28;20048;-79
2022/05/13 02:14:14;;;;;;;13.20;4.13;;;11.80;99.90;;;;;;5075413;28;20044;-79
2022/05/13 02:16:39;;;;;;;18.52;3.95;;;11.90;99.90;;;;;;5077486;28;20372;-78
2022/05/13 02:19:05;;;;;;;15.93;3.88;;;11.80;99.90;;;;;;5075757;28;20055;-79
2022/05/13 02:21:31;;;;;;;17.52;4.20;;;11.80;99.90;;;;;;5079534;28;20150;-78
2022/05/13 02:23:56;;;;;;;16.95;4.22;;;11.90;99.90;;;;;;5076804;28;20056;-78
2022/05/13 02:26:22;;;;;;;14.80;5.45;;;11.90;99.90;;;;;;5076826;28;20048;-78
2022/05/13 02:28:48;;;;;;;17.25;4.88;;;11.80;99.90;;;;;;5076908;28;20074;-78
2022/05/13 02:31:14;;;;;;;23.58;5.55;;;11.90;99.90;;;;;;5072725;28;20396;-78
2022/05/13 02:33:41;;;;;;;20.08;5.70;;;11.80;99.90;;;;;;5068102;28;20045;-78
2022/05/13 02:36:07;;;;;;;19.33;5.70;;;11.80;99.90;;;;;;5049586;28;20044;-78
2022/05/13 02:38:33;;;;;;;16.35;5.45;;;11.80;99.90;;;;;;5066725;28;20050;-78
2022/05/13 02:41:11;;;;;;;20.25;5.72;;;11.90;99.90;;;;;;5069001;28;20052;-78
2022/05/13 02:43:39;;;;;;;19.33;5.40;;;12.00;99.90;;;;;;5068029;28;20036;-78
2022/05/13 02:46:04;;;;;;;21.90;4.43;;;11.80;99.90;;;;;;5066546;28;20040;-78
2022/05/13 02:48:30;;;;;;;17.13;4.90;;;12.00;99.90;;;;;;5067241;28;20044;-78
2022/05/13 02:50:56;;;;;;;17.30;5.15;;;11.80;99.90;;;;;;5066722;28;20123;-78
2022/05/13 02:53:22;;;;;;;20.35;4.80;;;11.80;99.90;;;;;;5066133;28;20852;-78
2022/05/13 02:55:48;;;;;;;17.10;4.93;;;11.80;99.90;;;;;;5066935;28;20336;-78
2022/05/13 02:58:14;;;;;;;23.92;5.45;;;12.30;99.90;;;;;;5065056;28;20063;-78
2022/05/13 03:00:40;;;;;;;14.82;4.68;;;11.80;99.90;;;;;;5066707;28;20140;-78
2022/05/13 03:03:06;;;;;;;22.35;5.30;;;12.00;99.90;;;;;;5066751;28;20452;-79
2022/05/13 03:05:34;;;;;;;15.93;4.43;;;11.70;99.90;;;;;;5049279;28;20123;-78
2022/05/13 03:08:01;;;;;;;15.60;4.38;;;11.90;99.90;;;;;;5049933;28;20123;-78
2022/05/13 03:10:29;;;;;;;22.15;5.82;;;11.80;99.90;;;;;;5066158;28;20052;-78
2022/05/13 03:12:56;;;;;;;20.10;4.50;;;11.80;99.90;;;;;;5067448;28;20510;-78
2022/05/13 03:15:22;;;;;;;18.77;4.70;;;11.80;99.90;;;;;;5066076;28;20151;-78
2022/05/13 03:17:49;;;;;;;22.40;4.88;;;11.70;99.90;;;;;;5065801;28;20131;-79
2022/05/13 03:20:17;;;;;;;19.40;4.97;;;11.80;99.90;;;;;;5065483;28;20051;-79
2022/05/13 03:22:44;;;;;;;22.40;6.35;;;11.70;99.90;;;;;;5066273;28;20045;-78
2022/05/13 03:25:10;;;;;;;21.77;5.70;;;11.80;99.90;;;;;;5065791;28;20044;-78
2022/05/13 03:27:36;;;;;;;23.55;6.45;;;11.80;99.90;;;;;;5066117;28;20093;-79
2022/05/13 03:30:04;;;;;;;25.27;5.65;;;11.70;99.90;;;;;;5066424;28;20135;-79
2022/05/13 03:32:30;;;;;;;22.52;5.57;;;11.70;99.90;;;;;;5066307;28;20136;-78
2022/05/13 03:34:55;;;;;;;22.02;5.03;;;11.70;99.90;;;;;;5066635;28;20044;-78
2022/05/13 03:37:21;;;;;;;20.33;4.63;;;11.80;99.90;;;;;;5065593;28;20126;-79
2022/05/13 03:39:47;;;;;;;20.67;4.47;;;12.20;99.90;;;;;;5065462;28;20053;-79
2022/05/13 03:42:12;;;;;;;20.83;4.60;;;11.80;99.90;;;;;;5066244;28;20063;-78
2022/05/13 03:44:38;;;;;;;17.20;4.40;;;11.80;99.90;;;;;;5066444;28;20508;-78
2022/05/13 03:47:04;;;;;;;21.83;4.93;;;12.10;99.90;;;;;;5065194;28;20574;-78
2022/05/13 03:49:30;;;;;;;22.25;4.10;;;11.80;99.90;;;;;;5067652;28;20035;-78
2022/05/13 03:51:56;;;;;;;22.33;3.95;;;11.80;99.90;;;;;;5065860;28;20407;-78
2022/05/13 03:54:22;;;;;;;19.70;4.68;;;11.80;99.90;;;;;;5064941;28;20060;-78
2022/05/13 03:56:47;;;;;;;23.13;4.95;;;11.70;99.90;;;;;;5065806;28;20056;-78
2022/05/13 03:59:13;;;;;;;21.00;4.70;;;11.80;99.90;;;;;;5065540;28;20048;-79
2022/05/13 04:01:38;;;;;;;17.75;4.20;;;11.80;99.90;;;;;;5065976;28;20044;-79
2022/05/13 04:04:04;;;;;;;17.90;4.38;;;11.70;99.90;;;;;;5064594;28;20388;-79
2022/05/13 04:09:14;;;;;;;25.98;4.20;;;11.80;99.90;;;;;;5067523;28;20059;-79
2022/05/13 04:11:41;;;;;;;27.27;5.03;;;11.80;99.90;;;;;;5069875;28;20056;-78
2022/05/13 04:16:54;;;;;;;21.60;4.88;;;11.80;99.90;;;;;;5070124;28;20071;-79
2022/05/13 04:19:21;;;;;;;21.63;4.63;;;11.70;99.90;;;;;;5068476;28;20044;-79
2022/05/13 04:21:47;;;;;;;18.35;4.25;;;11.80;99.90;;;;;;5069419;28;20106;-79
2022/05/13 04:24:16;;;;;;;18.90;5.22;;;11.80;99.90;;;;;;5069524;28;20049;-78
2022/05/13 04:26:43;;;;;;;23.52;5.57;;;11.80;99.90;;;;;;5053318;28;20561;-78
2022/05/13 04:29:09;;;;;;;19.92;5.40;;;11.80;99.90;;;;;;5051317;28;20476;-80
2022/05/13 04:31:38;;;;;;;20.38;4.53;;;11.90;99.90;;;;;;5085882;28;20411;-79
2022/05/13 04:34:05;;;;;;;28.70;5.78;;;11.80;99.90;;;;;;5077100;28;20056;-79
2022/05/13 04:36:30;;;;;;;25.23;5.15;;;11.80;99.90;;;;;;5068945;28;20135;-79
2022/05/13 04:38:56;;;;;;;22.40;4.40;;;12.10;99.90;;;;;;5069814;28;20790;-79
2022/05/13 04:44:09;;;;;;;20.15;5.38;;;12.00;99.90;;;;;;5067554;28;20379;-79
2022/05/13 04:46:36;;;;;;;21.65;5.13;;;11.80;99.90;;;;;;5069668;28;20408;-79
2022/05/13 04:49:02;;;;;;;28.08;4.90;;;11.80;99.90;;;;;;5067924;28;20436;-79
2022/05/13 04:51:28;;;;;;;25.98;4.90;;;11.90;99.90;;;;;;5068601;28;20131;-79
2022/05/13 04:53:55;;;;;;;30.60;5.88;;;11.90;99.90;;;;;;5069037;28;20128;-79
2022/05/13 04:56:22;;;;;;;21.70;4.55;;;11.90;99.90;;;;;;5068347;28;20052;-79
2022/05/13 04:58:48;;;;;;;22.48;5.45;;;11.90;99.90;;;;;;5071573;28;20580;-78
2022/05/13 05:01:15;;;;;;;25.83;5.18;;;12.00;99.90;;;;;;5071511;28;20169;-79
2022/05/13 05:03:41;;;;;;;27.17;5.45;;;12.00;99.90;;;;;;5071033;28;20332;-79
2022/05/13 05:06:08;;;;;;;28.70;5.30;;;12.00;99.90;;;;;;5071712;28;20048;-79
2022/05/13 05:08:35;;;;;;;29.27;5.13;;;12.00;99.90;;;;;;5072119;28;20039;-79
2022/05/13 05:11:02;;;;;;;23.77;4.80;;;12.20;99.90;;;;;;5071501;28;20052;-79
2022/05/13 05:13:33;;;;;;;19.65;3.92;;;12.10;99.90;;;;;;5055799;28;20036;-79
2022/05/13 05:15:59;;;;;;;20.13;4.60;;;12.50;99.90;;;;;;5072591;28;20048;-79
2022/05/13 05:18:25;;;;;;;16.40;4.30;;;12.20;99.90;;;;;;5069963;28;20051;-79
2022/05/13 05:20:51;;;;;;;25.67;5.47;;;12.30;99.90;;;;;;5090976;28;20122;-79
2022/05/13 05:23:20;;;;;;;22.33;5.07;;;12.30;99.90;;;;;;5071459;28;20458;-79
2022/05/13 05:25:47;;;;;;;21.23;4.72;;;12.70;99.90;;;;;;5055282;28;20498;-80
2022/05/13 05:28:13;;;;;;;17.80;4.20;;;12.40;99.90;;;;;;5071448;28;20489;-79
2022/05/13 05:30:40;;;;;;;17.15;3.70;;;12.50;99.90;;;;;;5072441;28;20040;-79
2022/05/13 05:33:06;;;;;;;16.92;3.67;;;12.60;99.90;;;;;;5069838;28;20048;-79
2022/05/13 05:35:32;;;;;;;19.95;4.63;;;12.60;99.90;;;;;;5071689;28;20143;-79
2022/05/13 05:37:57;;;;;;;26.85;5.22;;;12.60;99.90;;;;;;5071605;28;20113;-79
2022/05/13 05:40:23;;;;;;;15.95;3.67;;;12.80;99.90;;;;;;5053420;28;20048;-79
2022/05/13 05:42:49;;;;;;;12.40;3.10;;;12.90;99.90;;;;;;5071782;28;20036;-79
2022/05/13 05:45:16;;;;;;;16.50;3.55;;;12.90;99.90;;;;;;5071133;28;20040;-79
2022/05/13 05:47:42;;;;;;;13.85;4.00;;;13.00;99.90;;;;;;5088531;28;20052;-79
2022/05/13 05:50:12;;;;;;;13.20;3.00;;;13.20;99.90;;;;;;5089578;28;20083;-79
2022/05/13 05:52:38;;;;;;;15.27;3.30;;;13.20;99.90;;;;;;5089531;28;20138;-79
2022/05/13 05:57:57;;;;;;;22.52;4.18;;;13.20;99.90;;;;;;5070789;28;20117;-79
2022/05/13 06:00:23;;;;;;;20.20;3.75;;;13.20;99.90;;;;;;5070195;28;20047;-79
2022/05/13 06:02:48;;;;;;;17.80;3.45;;;13.20;99.90;;;;;;5070630;28;20040;-79
2022/05/13 06:05:14;;;;;;;20.70;3.50;;;13.10;99.90;;;;;;5070430;28;20475;-79
2022/05/13 06:07:40;;;;;;;11.05;2.92;;;13.20;99.90;;;;;;5070258;28;20086;-79
2022/05/13 06:10:06;;;;;;;17.63;2.92;;;13.20;99.90;;;;;;5070367;28;20111;-79
2022/05/13 06:12:31;;;;;;;13.55;2.47;;;13.20;99.90;;;;;;5071126;28;20048;-79
2022/05/13 06:14:57;;;;;;;14.65;2.53;;;13.20;99.90;;;;;;5070710;28;20052;-79
2022/05/13 06:17:23;;;;;;;11.27;2.53;;;13.20;99.90;;;;;;5068992;28;20054;-79
2022/05/13 06:19:49;;;;;;;13.20;2.55;;;13.20;99.90;;;;;;5071100;28;20052;-79
2022/05/13 06:22:15;;;;;;;12.80;2.53;;;13.20;99.90;;;;;;5069431;28;20081;-78
2022/05/13 06:24:41;;;;;;;15.45;3.28;;;13.20;99.90;;;;;;5071087;28;20052;-79
2022/05/13 06:27:06;;;;;;;8.35;2.28;;;13.20;99.90;;;;;;5070116;28;20423;-79
2022/05/13 06:29:35;;;;;;;11.35;2.55;;;13.30;99.90;;;;;;5069549;28;20040;-78
2022/05/13 06:32:00;;;;;;;9.98;2.30;;;13.30;99.90;;;;;;5087946;28;20482;-79
2022/05/13 06:34:26;;;;;;;9.57;2.25;;;13.30;99.90;;;;;;5069033;28;20075;-78
2022/05/13 06:36:52;;;;;;;14.23;2.42;;;13.50;99.90;;;;;;5069935;28;20044;-79
2022/05/13 06:39:18;;;;;;;11.32;2.42;;;13.40;99.90;;;;;;5069617;28;20051;-79
2022/05/13 06:41:44;;;;;;;11.60;2.22;;;13.40;99.90;;;;;;5088845;28;20393;-78
2022/05/13 06:44:10;;;;;;;15.25;2.50;;;13.50;99.90;;;;;;5069010;28;20122;-78
2022/05/13 06:46:39;;;;;;;13.63;2.70;;;13.90;99.90;;;;;;5069935;28;20087;-78
2022/05/13 06:49:07;;;;;;;11.93;2.67;;;13.60;99.90;;;;;;5068259;28;20051;-78
2022/05/13 06:51:33;;;;;;;9.73;2.40;;;13.70;99.90;;;;;;5069866;28;20036;-78
2022/05/13 06:54:03;;;;;;;15.10;2.97;;;13.90;99.90;;;;;;5088538;28;20083;-78
2022/05/13 06:56:32;;;;;;;9.15;1.95;;;13.90;99.90;;;;;;5087317;28;20086;-78
2022/05/13 06:58:58;;;;;;;12.88;1.85;;;14.00;99.90;;;;;;5088642;28;20131;-78
2022/05/13 07:01:23;;;;;;;15.73;2.35;;;14.10;99.90;;;;;;5069090;28;20409;-78
2022/05/13 07:03:49;;;;;;;13.18;2.95;;;14.20;99.90;;;;;;5087522;28;20129;-78
2022/05/13 07:06:15;;;;;;;9.57;1.77;;;14.50;99.90;;;;;;5087849;28;20063;-78
2022/05/13 07:08:41;;;;;;;11.38;2.30;;;14.50;99.90;;;;;;5088193;28;20044;-77
2022/05/13 07:11:07;;;;;;;13.82;2.63;;;14.70;99.90;;;;;;5087742;28;20047;-78
2022/05/13 07:13:33;;;;;;;14.70;2.75;;;14.90;99.90;;;;;;5069461;28;20052;-78
2022/05/13 07:15:59;;;;;;;8.73;2.05;;;14.80;99.90;;;;;;5069918;28;20126;-78
2022/05/13 07:18:25;;;;;;;16.20;2.20;;;14.70;99.90;;;;;;5086078;28;20126;-78
2022/05/13 07:20:50;;;;;;;9.95;1.90;;;14.60;99.90;;;;;;5087964;28;20072;-78
2022/05/13 07:23:16;;;;;;;10.35;2.33;;;14.60;99.90;;;;;;5069353;28;20054;-78
2022/05/13 07:25:41;;;;;;;10.15;1.77;;;14.60;99.90;;;;;;5068974;28;20501;-78
2022/05/13 07:28:07;;;;;;;14.40;2.25;;;14.60;99.90;;;;;;5082241;28;20042;-78
2022/05/13 07:30:33;;;;;;;10.82;2.30;;;14.70;99.90;;;;;;5097262;28;20035;-82
2022/05/13 07:32:59;;;;;;;9.38;2.13;;;14.80;99.90;;;;;;5114473;27;20036;-78
2022/05/13 07:35:24;;;;;;;10.55;2.08;;;14.90;99.90;;;;;;5098800;27;20035;-78
2022/05/13 07:37:50;;;;;;;13.55;2.17;;;15.10;99.90;;;;;;5097265;28;20104;-79
2022/05/13 07:43:02;;;;;;;12.23;2.38;;;15.50;99.90;;;;;;5097751;28;20047;-78
2022/05/13 07:45:27;;;;;;;15.15;1.80;;;15.60;99.90;;;;;;5107739;27;20402;-79
2022/05/13 07:47:53;;;;;;;7.10;1.73;;;15.60;99.90;;;;;;5108810;28;20047;-78
2022/05/13 07:50:19;;;;;;;9.60;1.70;;;15.60;99.90;;;;;;5089075;28;20410;-78
2022/05/13 07:52:45;;;;;;;10.57;1.70;;;15.70;99.90;;;;;;5053495;28;20047;-78
2022/05/13 07:55:15;;;;;;;12.70;2.10;;;15.80;99.90;;;;;;5096203;28;20043;-78
2022/05/13 07:57:42;;;;;;;9.52;1.90;;;16.00;99.90;;;;;;5088857;28;20532;-78
2022/05/13 08:00:25;;;;;;;9.60;1.60;;;16.20;99.90;;;;;;5091508;28;20083;-78
2022/05/13 08:02:53;;;;;;;15.75;1.95;;;16.10;99.90;;;;;;5079276;28;20124;-78
2022/05/13 08:05:18;;;;;;;7.75;1.95;;;15.90;99.90;;;;;;5117556;28;20463;-78
2022/05/13 08:07:44;;;;;;;12.27;2.15;;;15.60;99.90;;;;;;5099428;28;20058;-78
2022/05/13 08:10:10;;;;;;;12.50;2.00;;;15.40;99.90;;;;;;5109998;28;20386;-78
2022/05/13 08:12:36;;;;;;;8.60;1.60;;;15.20;99.90;;;;;;5082812;28;20039;-77
2022/05/13 08:15:02;;;;;;;10.20;1.83;;;15.20;99.90;;;;;;5096452;28;20062;-78
2022/05/13 08:17:33;;;;;;;10.57;2.00;;;15.00;99.90;;;;;;5088418;28;20079;-77
2022/05/13 08:19:59;;;;;;;8.93;1.67;;;14.90;99.90;;;;;;5104519;28;20384;-78
2022/05/13 08:22:25;;;;;;;9.20;1.60;;;14.70;99.90;;;;;;5115090;28;20049;-78
2022/05/13 08:24:50;;;;;;;11.15;1.77;;;14.80;99.90;;;;;;5096904;28;20498;-77
2022/05/13 08:27:16;;;;;;;12.00;1.67;;;14.90;99.90;;;;;;5104502;28;20126;-77
2022/05/13 08:29:42;;;;;;;10.82;1.95;;;14.90;99.90;;;;;;5074366;28;20042;-78
2022/05/13 08:32:08;;;;;;;10.80;2.17;;;14.80;99.90;;;;;;5101671;28;20047;-78
2022/05/13 08:34:33;;;;;;;8.98;1.75;;;14.80;99.90;;;;;;5097654;28;20043;-78
2022/05/13 08:36:59;;;;;;;7.60;1.60;;;14.90;99.90;;;;;;5095508;28;20142;-78
2022/05/13 08:39:25;;;;;;;6.32;1.67;;;15.00;99.90;;;;;;5104987;28;20051;-78
2022/05/13 08:42:09;;;;;;;10.80;2.10;;;15.30;99.90;;;;;;5087895;28;20048;-78
2022/05/13 08:44:36;;;;;;;11.85;1.75;;;15.60;99.90;;;;;;5098201;28;20054;-78
2022/05/13 08:47:13;;;;;;;10.23;1.77;;;15.60;99.90;;;;;;5100817;28;20058;-78
2022/05/13 08:49:54;;;;;;;13.07;1.90;;;15.50;99.90;;;;;;5090982;28;20051;-78
2022/05/13 08:55:17;;;;;;;7.13;1.33;;;15.70;99.90;;;;;;5095467;28;20101;-78
2022/05/13 08:57:45;;;;;;;8.23;1.73;;;15.80;99.90;;;;;;5107797;27;20554;-78
2022/05/13 09:00:18;;;;;;;8.55;1.50;;;15.70;99.90;;;;;;5081721;27;20112;-78
2022/05/13 09:02:52;;;;;;;11.73;2.00;;;15.60;99.90;;;;;;5100087;28;20743;-78
2022/05/13 09:05:27;;;;;;;13.35;1.90;;;15.40;99.90;;;;;;5107557;27;20092;-78
2022/05/13 09:07:54;;;;;;;9.20;1.55;;;15.20;99.90;;;;;;5076153;28;20532;-78
2022/05/13 09:10:20;;;;;;;11.88;1.70;;;15.10;99.90;;;;;;5099065;27;20044;-78
2022/05/13 09:12:57;;;;;;;11.15;1.98;;;15.10;99.90;;;;;;5118655;27;20116;-78
2022/05/13 09:15:29;;;;;;;9.77;2.17;;;15.40;99.90;;;;;;5127467;27;20047;-78
2022/05/13 09:18:06;;;;;;;14.40;1.70;;;15.50;99.90;;;;;;5080117;27;20136;-78
2022/05/13 09:20:47;;;;;;;6.07;1.45;;;15.60;99.90;;;;;;5119995;27;20278;-78
2022/05/13 09:23:14;;;;;;;11.32;1.88;;;15.50;99.90;;;;;;5090487;28;20044;-78
2022/05/13 09:26:01;;;;;;;17.13;2.13;;;15.40;99.90;;;;;;5100905;28;20039;-78
2022/05/13 09:28:29;;;;;;;10.18;1.60;;;15.30;99.90;;;;;;5091516;28;20115;-78
2022/05/13 09:31:20;;;;;;;9.02;1.30;;;15.30;99.90;;;;;;5091227;28;20039;-78
2022/05/13 09:33:47;;;;;;;7.57;1.45;;;15.40;99.90;;;;;;5098113;27;20035;-78
2022/05/13 09:36:21;;;;;;;8.43;1.77;;;15.40;99.90;;;;;;5101373;27;20463;-78
2022/05/13 09:38:51;;;;;;;6.60;1.30;;;15.40;99.90;;;;;;5101009;27;20039;-78
2022/05/13 09:41:25;;;;;;;12.65;1.65;;;15.30;99.90;;;;;;5101931;27;20036;-78
2022/05/13 09:43:52;;;;;;;5.95;1.30;;;15.60;99.90;;;;;;5080791;27;20110;-77
2022/05/13 09:46:29;;;;;;;8.65;1.20;;;15.70;99.90;;;;;;5094385;27;20089;-78
2022/05/13 09:49:01;;;;;;;9.63;1.52;;;15.70;99.90;;;;;;5090262;27;20090;-78
2022/05/13 09:51:35;;;;;;;6.22;1.27;;;15.60;99.90;;;;;;5091758;27;20043;-78
2022/05/13 09:54:06;;;;;;;3.58;0.93;;;15.60;99.90;;;;;;5096530;27;20516;-78
2022/05/13 09:56:38;;;;;;;9.43;1.35;;;15.50;99.90;;;;;;5077283;28;20040;-78
2022/05/13 09:59:12;;;;;;;5.05;1.00;;;15.60;99.90;;;;;;5091394;27;20058;-78
2022/05/13 10:01:37;;;;;;;8.15;0.90;;;15.60;99.90;;;;;;5098589;27;20036;-78
2022/05/13 10:04:10;;;;;;;8.50;1.20;;;15.70;99.90;;;;;;5105278;28;20096;-77
2022/05/13 10:06:37;;;;;;;9.48;1.50;;;15.80;99.90;;;;;;5091396;27;20194;-77
2022/05/13 10:14:44;;;;;;;8.70;1.60;;;15.80;99.90;;;;;;5082504;28;20201;-78
2022/05/13 10:17:26;;;;;;;6.45;1.30;;;16.10;99.90;;;;;;5088322;28;20414;-78
2022/05/13 10:20:00;;;;;;;11.63;1.40;;;16.50;99.90;;;;;;5083760;28;20044;-78
2022/05/13 10:22:44;;;;;;;9.55;1.88;;;16.60;99.90;;;;;;5092554;27;20289;-78
2022/05/13 10:25:16;;;;;;;9.38;1.52;;;16.40;99.90;;;;;;5094136;27;20131;-79
2022/05/13 10:27:55;;;;;;;28.25;3.65;;;16.60;99.90;;;;;;5098612;28;20044;-78
2022/05/13 10:30:31;;;;;;;7.18;1.45;;;16.70;99.90;;;;;;5093208;27;20557;-78
2022/05/13 10:33:04;;;;;;;16.00;2.03;;;16.90;99.90;;;;;;5085435;28;20195;-79
2022/05/13 10:35:38;;;;;;;9.25;1.55;;;17.10;99.90;;;;;;5104702;27;20351;-78
2022/05/13 10:38:15;;;;;;;10.52;1.67;;;17.40;99.90;;;;;;5075153;28;20157;-78
2022/05/13 10:40:45;;;;;;;9.98;1.88;;;17.60;99.90;;;;;;5068342;27;20105;-78
2022/05/13 10:43:31;;;;;;;12.50;1.90;;;17.70;99.90;;;;;;5109715;27;20108;-78
2022/05/13 10:46:20;;;;;;;9.40;1.55;;;17.90;99.90;;;;;;5088744;27;21519;-79
2022/05/13 10:48:49;;;;;;;13.30;2.20;;;18.00;99.90;;;;;;5116211;27;20058;-79
2022/05/13 10:51:28;;;;;;;10.98;1.77;;;18.20;99.90;;;;;;5103702;27;20122;-78
2022/05/13 10:54:10;;;;;;;9.90;1.30;;;18.20;99.90;;;;;;5073108;28;20055;-79
2022/05/13 10:56:53;;;;;;;7.07;1.20;;;18.00;99.90;;;;;;5089125;28;20475;-79
2022/05/13 10:59:28;;;;;;;10.48;1.83;;;17.80;99.90;;;;;;5050013;28;20863;-78
2022/05/13 11:01:55;;;;;;;9.07;1.73;;;17.50;99.90;;;;;;5087337;28;20078;-78
2022/05/13 11:04:38;;;;;;;9.40;1.58;;;17.30;99.90;;;;;;5088758;28;20401;-80
2022/05/13 11:07:17;;;;;;;7.72;1.20;;;17.10;99.90;;;;;;5062880;27;20051;-77
2022/05/13 11:09:50;;;;;;;7.20;1.40;;;17.00;99.90;;;;;;5093580;27;20499;-78
2022/05/13 11:12:41;;;;;;;9.20;1.50;;;17.00;99.90;;;;;;5099330;27;20046;-77
2022/05/13 11:15:20;;;;;;;9.80;1.83;;;17.10;99.90;;;;;;5069651;28;20051;-78
2022/05/13 11:18:06;;;;;;;11.68;1.52;;;17.10;99.90;;;;;;5052147;28;20047;-77
2022/05/13 11:21:09;;;;;;;8.95;1.50;;;17.20;99.90;;;;;;5052989;28;20048;-77
2022/05/13 11:26:47;;;;;;;6.38;1.38;;;16.90;99.90;;;;;;5069673;28;20059;-77
2022/05/13 11:29:30;;;;;;;6.45;1.27;;;16.70;99.90;;;;;;5068831;28;20153;-78
2022/05/13 11:32:15;;;;;;;8.77;2.03;;;16.60;99.90;;;;;;5052524;28;20048;-78
2022/05/13 11:35:00;;;;;;;10.13;1.60;;;16.60;99.90;;;;;;5087302;28;20127;-78
2022/05/13 11:37:32;;;;;;;10.27;2.00;;;16.60;99.90;;;;;;5068120;28;20048;-78
2022/05/13 11:40:21;;;;;;;12.00;2.17;;;16.60;99.90;;;;;;5069463;28;20084;-78
2022/05/13 11:46:01;;;;;;;13.70;1.88;;;16.50;99.90;;;;;;5068804;28;20154;-78
2022/05/13 11:48:32;;;;;;;9.32;2.38;;;16.50;99.90;;;;;;5069181;28;20399;-79
2022/05/13 11:51:06;;;;;;;14.07;2.40;;;16.50;99.90;;;;;;5092336;28;20077;-78
2022/05/13 11:53:41;;;;;;;9.05;1.45;;;16.60;99.90;;;;;;5080930;28;20048;-78
2022/05/13 11:56:26;;;;;;;10.25;1.73;;;16.90;99.90;;;;;;5100914;28;20502;-78
2022/05/13 11:58:55;;;;;;;10.32;1.45;;;17.10;99.90;;;;;;5096052;28;20051;-77
2022/05/13 12:01:48;;;;;;;9.32;1.77;;;17.30;99.90;;;;;;5099321;28;20055;-78
2022/05/13 12:04:14;;;;;;;8.55;1.48;;;17.70;99.90;;;;;;5094568;28;20411;-78
2022/05/13 12:06:50;;;;;;;3.47;1.02;;;17.90;99.90;;;;;;5101240;28;20417;-78
2022/05/13 12:09:36;;;;;;;7.55;1.40;;;17.80;99.90;;;;;;5078788;28;20039;-78
2022/05/13 12:12:13;;;;;;;8.32;1.50;;;17.70;99.90;;;;;;5085485;28;20490;-78
2022/05/13 12:14:47;;;;;;;5.43;1.38;;;17.50;99.90;;;;;;5081528;28;20391;-79
2022/05/13 12:17:29;;;;;;;8.88;1.38;;;17.40;99.90;;;;;;5081342;28;20100;-81
2022/05/13 12:20:06;;;;;;;9.45;1.27;;;17.20;99.90;;;;;;5103022;28;20047;-78
2022/05/13 12:22:37;;;;;;;8.50;2.00;;;17.20;99.90;;;;;;5088584;28;20044;-78
2022/05/13 12:25:09;;;;;;;6.53;1.20;;;17.20;99.90;;;;;;5074247;28;20127;-78
2022/05/13 12:27:36;;;;;;;6.30;1.42;;;17.10;99.90;;;;;;5097714;28;20412;-78
2022/05/13 12:30:29;;;;;;;5.95;1.05;;;17.10;99.90;;;;;;5086426;27;20134;-77
2022/05/13 12:32:56;;;;;;;8.32;2.03;;;17.10;99.90;;;;;;5112505;27;20069;-78
2022/05/13 12:38:21;;;;;;;9.13;2.13;;;17.50;99.90;;;;;;5098489;27;20059;-78
2022/05/13 12:41:15;;;;;;;9.68;1.85;;;17.70;99.90;;;;;;5106543;27;20039;-79
2022/05/13 12:44:06;;;;;;;8.38;1.48;;;17.80;99.90;;;;;;5117579;27;20111;-78
2022/05/13 12:47:14;;;;;;;7.53;1.35;;;17.70;99.90;;;;;;5095288;27;20076;-79
2022/05/13 12:49:49;;;;;;;11.65;1.70;;;17.60;99.90;;;;;;5097851;27;20145;-79
2022/05/13 12:52:26;;;;;;;6.03;1.35;;;17.70;99.90;;;;;;5108584;27;20043;-79
2022/05/13 12:54:59;;;;;;;11.27;1.80;;;17.80;99.90;;;;;;5091692;27;20078;-79
2022/05/13 12:57:31;;;;;;;9.45;1.30;;;18.00;99.90;;;;;;5088106;28;20052;-79
2022/05/13 12:59:58;;;;;;;10.90;1.58;;;18.20;99.90;;;;;;5083501;28;20059;-79
2022/05/13 13:02:28;;;;;;;6.40;1.65;;;18.30;99.90;;;;;;5085539;28;20036;-79
2022/05/13 13:05:00;;;;;;;9.52;1.73;;;18.20;99.90;;;;;;5071498;28;20054;-79
2022/05/13 13:07:28;;;;;;;6.60;1.77;;;18.00;99.90;;;;;;5082666;28;20044;-79
2022/05/13 13:09:54;;;;;;;11.90;1.75;;;18.00;99.90;;;;;;5082686;28;20047;-79
2022/05/13 13:12:37;;;;;;;6.95;1.42;;;17.70;99.90;;;;;;5069105;27;20093;-79
2022/05/13 13:15:14;;;;;;;11.57;2.00;;;17.60;99.90;;;;;;5082803;28;20053;-79
2022/05/13 13:17:47;;;;;;;10.57;2.08;;;17.60;99.90;;;;;;5116553;27;20118;-78
2022/05/13 13:20:16;;;;;;;10.65;2.65;;;17.50;99.90;;;;;;5084479;27;20047;-78
2022/05/13 13:22:47;;;;;;;14.35;1.50;;;17.60;99.90;;;;;;5094982;27;20451;-79
2022/05/13 13:25:36;;;;;;;10.07;2.05;;;17.80;99.90;;;;;;5106712;27;20043;-80
2022/05/13 13:28:06;;;;;;;10.65;1.77;;;18.20;99.90;;;;;;5075042;27;20137;-79